Time;durP1;ratioP1;P1;durP2;ratioP2;P2;SDS_P1;SDS_P2;PMS_P1;PMS_P2;Temp;Humidity;BMP_temperature;BMP_pressure;BME280_temperature;BME280_humidity;BME280_pressure;Samples;Min_cycle;Max_cycle;Signal;HPM_P1;HPM_P2
2021/10/31 00:01:53;;;;;;;18.20;13.85;;;19.10;67.80;;;;;;6246869;23;20197;-81
2021/10/31 00:04:19;;;;;;;18.15;13.57;;;19.10;67.80;;;;;;6247226;23;20200;-80
2021/10/31 00:06:44;;;;;;;17.60;12.73;;;19.10;67.90;;;;;;6246627;23;20512;-81
2021/10/31 00:09:10;;;;;;;16.27;12.43;;;19.10;68.00;;;;;;6247014;23;20182;-80
2021/10/31 00:11:36;;;;;;;19.45;13.60;;;19.10;68.10;;;;;;6220202;23;20137;-79
2021/10/31 00:14:02;;;;;;;18.77;13.32;;;19.10;68.00;;;;;;6246866;23;20145;-79
2021/10/31 00:16:28;;;;;;;16.50;12.10;;;19.10;67.90;;;;;;6246904;23;20157;-81
2021/10/31 00:18:53;;;;;;;20.10;12.90;;;19.10;68.00;;;;;;6247121;23;20184;-81
2021/10/31 00:21:22;;;;;;;19.00;13.48;;;19.00;67.80;;;;;;6247006;23;20169;-83
2021/10/31 00:23:48;;;;;;;17.52;12.75;;;19.00;68.00;;;;;;6246611;23;20524;-80
2021/10/31 00:26:14;;;;;;;18.10;12.98;;;19.10;68.10;;;;;;6219889;23;20160;-81
2021/10/31 00:28:40;;;;;;;18.17;13.05;;;19.00;67.80;;;;;;6219925;23;20556;-81
2021/10/31 00:31:06;;;;;;;20.00;13.30;;;19.00;68.00;;;;;;6246719;23;20134;-82
2021/10/31 00:33:31;;;;;;;19.25;13.50;;;19.00;68.00;;;;;;6246562;23;20138;-80
2021/10/31 00:35:57;;;;;;;18.88;13.07;;;19.00;68.00;;;;;;6220217;23;20134;-79
2021/10/31 00:38:24;;;;;;;17.77;12.60;;;19.00;67.80;;;;;;6246429;23;20133;-82
2021/10/31 00:40:50;;;;;;;17.75;12.95;;;19.00;67.60;;;;;;6220113;23;20165;-80
2021/10/31 00:43:16;;;;;;;17.88;12.77;;;19.00;67.90;;;;;;6219874;23;20136;-82
2021/10/31 00:45:42;;;;;;;17.52;12.93;;;19.00;67.80;;;;;;6246468;23;20133;-80
2021/10/31 00:48:08;;;;;;;18.52;13.38;;;19.00;68.00;;;;;;6220298;23;20172;-80
2021/10/31 00:50:34;;;;;;;18.30;13.52;;;19.00;68.00;;;;;;6246464;23;20129;-80
2021/10/31 00:53:00;;;;;;;18.45;13.27;;;19.00;68.00;;;;;;6246347;23;20134;-81
2021/10/31 00:55:26;;;;;;;15.55;12.30;;;19.00;68.00;;;;;;6246492;23;20214;-81
2021/10/31 00:57:51;;;;;;;18.35;13.75;;;19.00;68.00;;;;;;6220045;23;20129;-80
2021/10/31 01:00:17;;;;;;;17.92;12.65;;;19.00;68.10;;;;;;6220146;23;20142;-80
2021/10/31 01:02:43;;;;;;;16.15;12.63;;;19.00;68.10;;;;;;6246138;23;20169;-82
2021/10/31 01:05:11;;;;;;;17.75;13.00;;;19.00;68.10;;;;;;6246419;23;20129;-82
2021/10/31 01:07:49;;;;;;;17.45;13.07;;;19.00;68.10;;;;;;6246216;23;20204;-81
2021/10/31 01:10:36;;;;;;;17.65;12.63;;;19.00;68.10;;;;;;6246246;23;20132;-81
2021/10/31 01:13:25;;;;;;;18.88;12.98;;;19.00;68.10;;;;;;6246371;23;20133;-80
2021/10/31 01:16:13;;;;;;;17.48;12.68;;;19.00;68.10;;;;;;6246530;23;20138;-80
2021/10/31 01:19:09;;;;;;;18.23;12.82;;;19.00;67.80;;;;;;6219814;23;20795;-80
2021/10/31 01:22:00;;;;;;;18.00;13.13;;;19.00;68.10;;;;;;6223728;23;20166;-81
2021/10/31 01:24:45;;;;;;;17.17;12.30;;;19.00;68.00;;;;;;6246090;23;20137;-81
2021/10/31 01:27:51;;;;;;;17.75;13.02;;;19.00;67.90;;;;;;6219502;23;20165;-80
2021/10/31 01:30:29;;;;;;;18.02;12.70;;;19.00;68.10;;;;;;6219485;23;20465;-81
2021/10/31 01:33:11;;;;;;;16.85;12.40;;;19.00;68.00;;;;;;6246374;23;20142;-81
2021/10/31 01:35:55;;;;;;;17.38;12.80;;;19.00;68.00;;;;;;6246097;23;20138;-80
2021/10/31 01:38:49;;;;;;;16.83;12.82;;;19.00;68.00;;;;;;6220725;23;20507;-82
2021/10/31 01:41:17;;;;;;;18.83;12.82;;;18.90;68.00;;;;;;6246103;23;20173;-81
2021/10/31 01:44:08;;;;;;;18.65;12.73;;;19.00;68.10;;;;;;6246342;23;20133;-80
2021/10/31 01:46:55;;;;;;;16.30;12.63;;;19.00;68.10;;;;;;6219322;23;20136;-79
2021/10/31 01:49:25;;;;;;;17.80;12.60;;;19.00;68.00;;;;;;6245989;23;20155;-81
2021/10/31 01:51:54;;;;;;;16.90;12.88;;;19.00;68.00;;;;;;6219289;23;20522;-82
2021/10/31 01:54:25;;;;;;;17.20;12.57;;;18.90;68.90;;;;;;6219741;23;20212;-81
2021/10/31 01:56:52;;;;;;;17.48;12.68;;;18.90;68.10;;;;;;6194097;23;20565;-80
2021/10/31 01:59:22;;;;;;;17.00;12.57;;;18.90;68.20;;;;;;6246354;23;20137;-79
2021/10/31 02:01:48;;;;;;;20.17;13.75;;;18.90;68.10;;;;;;6194788;23;20165;-81
2021/10/31 02:04:14;;;;;;;17.15;12.88;;;18.90;68.20;;;;;;6245944;23;20211;-80
2021/10/31 02:06:44;;;;;;;17.25;12.85;;;18.90;68.10;;;;;;6245866;23;20189;-82
2021/10/31 02:09:12;;;;;;;17.92;12.68;;;18.90;68.00;;;;;;6246224;23;20169;-81
2021/10/31 02:11:38;;;;;;;16.92;12.18;;;18.90;68.00;;;;;;6246218;23;20134;-80
2021/10/31 02:14:03;;;;;;;17.42;12.98;;;18.90;68.00;;;;;;6219246;23;20160;-81
2021/10/31 02:16:29;;;;;;;17.88;13.60;;;18.90;68.00;;;;;;6245877;23;20141;-79
2021/10/31 02:19:02;;;;;;;17.88;12.77;;;18.90;68.10;;;;;;6246238;23;20628;-80
2021/10/31 02:21:27;;;;;;;17.90;12.90;;;18.90;68.00;;;;;;6245736;23;20252;-79
2021/10/31 02:23:53;;;;;;;17.23;12.55;;;18.90;67.90;;;;;;6245843;23;20575;-82
2021/10/31 02:26:18;;;;;;;17.17;12.30;;;18.90;68.10;;;;;;6245797;23;20144;-79
2021/10/31 02:28:56;;;;;;;18.60;12.40;;;18.90;68.00;;;;;;6246211;23;20472;-82
2021/10/31 02:31:22;;;;;;;17.52;12.82;;;18.90;68.00;;;;;;6245953;23;20137;-79
2021/10/31 02:33:48;;;;;;;17.85;12.82;;;18.90;67.90;;;;;;6245668;23;20130;-80
2021/10/31 02:36:14;;;;;;;18.50;12.90;;;18.90;68.00;;;;;;6219027;23;20492;-78
2021/10/31 02:38:40;;;;;;;16.70;12.48;;;18.90;68.00;;;;;;6219169;23;20264;-81
2021/10/31 02:41:06;;;;;;;21.23;13.32;;;18.90;68.00;;;;;;6219004;23;20493;-80
2021/10/31 02:43:31;;;;;;;17.52;12.93;;;18.90;68.20;;;;;;6219143;23;20130;-80
2021/10/31 02:45:57;;;;;;;17.67;13.07;;;18.80;68.00;;;;;;6245546;23;20133;-82
2021/10/31 02:48:22;;;;;;;19.38;13.45;;;18.80;67.90;;;;;;6246065;23;20484;-81
2021/10/31 02:50:48;;;;;;;18.08;13.23;;;18.90;68.10;;;;;;6246860;23;20173;-81
2021/10/31 02:53:23;;;;;;;18.50;13.23;;;18.90;68.00;;;;;;6247328;23;20130;-80
2021/10/31 02:55:58;;;;;;;18.10;13.30;;;18.90;68.10;;;;;;6222406;23;20133;-82
2021/10/31 02:58:46;;;;;;;19.02;13.88;;;18.90;68.10;;;;;;6247795;23;20215;-79
2021/10/31 03:01:13;;;;;;;16.80;12.25;;;18.90;68.20;;;;;;6220614;23;20255;-81
2021/10/31 03:03:38;;;;;;;19.50;13.52;;;18.90;68.20;;;;;;6220723;23;20134;-80
2021/10/31 03:06:04;;;;;;;18.92;13.13;;;18.80;68.20;;;;;;6220859;23;20228;-80
2021/10/31 03:08:30;;;;;;;18.35;12.82;;;18.80;68.20;;;;;;6220609;23;20247;-82
2021/10/31 03:10:57;;;;;;;18.20;12.93;;;18.80;68.20;;;;;;6247843;23;20192;-80
2021/10/31 03:13:23;;;;;;;18.38;13.20;;;18.80;68.10;;;;;;6247543;23;20129;-80
2021/10/31 03:15:49;;;;;;;18.90;13.45;;;18.80;68.20;;;;;;6247492;23;20138;-79
2021/10/31 03:18:15;;;;;;;17.90;12.65;;;18.80;68.10;;;;;;6247319;23;20497;-79
2021/10/31 03:20:41;;;;;;;18.17;12.55;;;18.80;68.10;;;;;;6247237;23;20137;-82
2021/10/31 03:23:07;;;;;;;17.73;12.55;;;18.80;68.10;;;;;;6247270;23;20134;-80
2021/10/31 03:25:32;;;;;;;18.10;12.93;;;18.80;68.20;;;;;;6220594;23;20134;-80
2021/10/31 03:27:58;;;;;;;16.40;12.40;;;18.80;68.20;;;;;;6247332;23;20137;-79
2021/10/31 03:30:25;;;;;;;18.23;12.70;;;18.80;68.30;;;;;;6247283;23;20140;-80
2021/10/31 03:32:50;;;;;;;17.50;12.70;;;18.80;68.30;;;;;;6247546;23;20146;-79
2021/10/31 03:35:16;;;;;;;18.17;13.10;;;18.80;68.30;;;;;;6220454;23;20184;-82
2021/10/31 03:37:42;;;;;;;19.52;13.95;;;18.80;68.10;;;;;;6247557;23;20138;-80
2021/10/31 03:40:09;;;;;;;17.70;13.07;;;18.80;68.20;;;;;;6220938;23;20221;-81
2021/10/31 03:42:34;;;;;;;16.45;12.80;;;18.70;68.10;;;;;;6247365;23;20192;-80
2021/10/31 03:45:00;;;;;;;17.17;12.82;;;18.80;69.00;;;;;;6220533;23;20134;-82
2021/10/31 03:47:28;;;;;;;19.52;13.30;;;18.80;68.30;;;;;;6247104;23;20133;-78
2021/10/31 03:49:54;;;;;;;18.30;12.95;;;18.80;68.30;;;;;;6247446;23;20188;-80
2021/10/31 03:52:19;;;;;;;17.75;12.88;;;18.80;68.40;;;;;;6247004;23;20509;-79
2021/10/31 03:54:45;;;;;;;17.75;12.88;;;18.80;68.40;;;;;;6247324;23;20626;-80
2021/10/31 03:57:10;;;;;;;18.55;13.00;;;18.70;68.20;;;;;;6247369;23;20141;-81
2021/10/31 03:59:36;;;;;;;20.00;13.15;;;18.80;68.40;;;;;;6246991;23;20442;-82
2021/10/31 04:02:03;;;;;;;17.13;12.98;;;18.70;68.30;;;;;;6219595;23;20250;-81
2021/10/31 04:04:29;;;;;;;18.17;13.23;;;18.80;68.30;;;;;;6220457;23;20140;-82
2021/10/31 04:06:54;;;;;;;19.40;14.05;;;18.80;68.40;;;;;;6246752;23;20213;-82
2021/10/31 04:09:20;;;;;;;19.17;13.25;;;18.80;68.40;;;;;;6246817;23;20160;-80
2021/10/31 04:11:46;;;;;;;18.13;12.80;;;18.80;68.30;;;;;;6246615;23;20600;-79
2021/10/31 04:14:11;;;;;;;17.98;13.07;;;18.80;68.30;;;;;;6246853;23;20461;-81
2021/10/31 04:16:37;;;;;;;17.23;12.65;;;18.80;68.20;;;;;;6246862;23;20142;-79
2021/10/31 04:19:03;;;;;;;19.55;14.18;;;18.80;68.30;;;;;;6220209;23;20472;-80
2021/10/31 04:21:28;;;;;;;16.85;12.82;;;18.80;68.30;;;;;;6246641;23;20175;-81
2021/10/31 04:23:54;;;;;;;15.80;12.25;;;18.80;68.30;;;;;;6247032;23;20554;-80
2021/10/31 04:26:20;;;;;;;18.55;12.90;;;18.80;68.30;;;;;;6246640;23;20137;-79
2021/10/31 04:28:46;;;;;;;18.63;12.95;;;18.80;68.30;;;;;;6219786;23;20141;-79
2021/10/31 04:31:11;;;;;;;18.83;13.77;;;18.70;68.30;;;;;;6246626;23;20473;-80
2021/10/31 04:33:37;;;;;;;17.42;12.93;;;18.80;68.20;;;;;;6219926;23;20133;-80
2021/10/31 04:36:04;;;;;;;18.80;13.85;;;18.80;68.40;;;;;;6246640;23;20172;-81
2021/10/31 04:38:31;;;;;;;18.50;13.05;;;18.70;68.30;;;;;;6246555;23;20138;-79
2021/10/31 04:40:57;;;;;;;18.60;13.05;;;18.80;68.30;;;;;;6220123;23;20166;-81
2021/10/31 04:43:25;;;;;;;19.05;13.10;;;18.80;68.30;;;;;;6246508;23;20130;-79
2021/10/31 04:45:51;;;;;;;17.40;12.65;;;18.80;68.30;;;;;;6246487;23;20130;-80
2021/10/31 04:48:17;;;;;;;19.45;13.20;;;18.80;68.10;;;;;;6219719;23;20561;-83
2021/10/31 04:50:42;;;;;;;19.13;13.20;;;18.80;68.20;;;;;;6246522;23;20137;-81
2021/10/31 04:53:08;;;;;;;19.90;13.57;;;18.80;68.30;;;;;;6219793;23;20191;-79
2021/10/31 04:55:36;;;;;;;17.40;12.88;;;18.70;68.20;;;;;;6246316;23;20183;-82
2021/10/31 04:58:01;;;;;;;18.70;13.75;;;18.70;68.20;;;;;;6246852;23;20191;-79
2021/10/31 05:00:27;;;;;;;18.35;13.15;;;18.70;68.30;;;;;;6246681;23;20169;-81
2021/10/31 05:02:53;;;;;;;18.80;13.38;;;18.70;68.20;;;;;;6246583;23;20161;-80
2021/10/31 05:05:19;;;;;;;18.85;13.23;;;18.70;68.10;;;;;;6219764;23;20125;-80
2021/10/31 05:07:46;;;;;;;16.90;12.27;;;18.70;68.30;;;;;;6246308;23;20232;-80
2021/10/31 05:10:12;;;;;;;17.27;13.02;;;18.70;68.30;;;;;;6219879;23;20126;-79
2021/10/31 05:12:38;;;;;;;17.98;13.15;;;18.70;68.30;;;;;;6219565;23;20133;-79
2021/10/31 05:15:04;;;;;;;18.08;13.43;;;18.70;68.30;;;;;;6246341;23;20208;-80
2021/10/31 05:17:32;;;;;;;19.05;12.75;;;18.70;68.30;;;;;;6246507;23;20141;-81
2021/10/31 05:19:57;;;;;;;19.17;13.20;;;18.70;68.30;;;;;;6246195;23;20125;-81
2021/10/31 05:22:23;;;;;;;19.45;13.52;;;18.70;68.10;;;;;;6246514;23;20188;-81
2021/10/31 05:24:49;;;;;;;18.88;13.40;;;18.70;68.30;;;;;;6246088;23;20134;-78
2021/10/31 05:27:14;;;;;;;16.50;12.55;;;18.70;68.30;;;;;;6246334;23;20134;-80
2021/10/31 05:29:40;;;;;;;18.48;13.18;;;18.70;68.40;;;;;;6246126;23;20634;-82
2021/10/31 05:32:06;;;;;;;18.38;13.48;;;18.70;68.30;;;;;;6194394;23;20160;-80
2021/10/31 05:34:31;;;;;;;17.83;13.05;;;18.70;68.30;;;;;;6246165;23;20450;-80
2021/10/31 05:36:57;;;;;;;18.55;12.98;;;18.80;68.40;;;;;;6219417;23;20205;-81
2021/10/31 05:39:23;;;;;;;17.40;12.73;;;18.70;68.40;;;;;;6219415;23;20547;-80
2021/10/31 05:41:48;;;;;;;17.15;12.95;;;18.70;68.40;;;;;;6194353;23;20173;-81
2021/10/31 05:44:14;;;;;;;19.17;13.40;;;18.70;68.50;;;;;;6194365;23;20133;-81
2021/10/31 05:46:40;;;;;;;18.88;12.90;;;18.70;68.40;;;;;;6194465;23;20460;-81
2021/10/31 05:49:05;;;;;;;18.08;13.35;;;18.70;68.40;;;;;;6246380;23;20133;-80
2021/10/31 05:51:31;;;;;;;17.33;13.30;;;18.70;68.40;;;;;;6246018;23;20437;-81
2021/10/31 05:53:57;;;;;;;18.80;13.57;;;18.70;68.40;;;;;;6219188;23;20145;-81
2021/10/31 05:56:23;;;;;;;19.35;13.80;;;18.70;68.30;;;;;;6246518;23;20179;-81
2021/10/31 05:58:49;;;;;;;19.60;13.75;;;18.70;68.40;;;;;;6217828;23;20148;-81
2021/10/31 06:01:15;;;;;;;17.00;12.80;;;18.70;68.40;;;;;;6218674;23;20527;-79
2021/10/31 06:03:40;;;;;;;19.73;13.50;;;18.70;68.40;;;;;;6244633;23;20130;-81
2021/10/31 06:06:06;;;;;;;18.83;14.20;;;18.70;68.30;;;;;;6246623;23;20134;-80
2021/10/31 06:08:31;;;;;;;17.98;13.13;;;18.70;68.40;;;;;;6246204;23;20193;-81
2021/10/31 06:10:57;;;;;;;19.70;13.68;;;18.70;68.40;;;;;;6219735;23;20500;-82
2021/10/31 06:13:23;;;;;;;18.50;13.70;;;18.70;68.40;;;;;;6245976;23;20152;-82
2021/10/31 06:15:48;;;;;;;19.80;13.65;;;18.70;68.30;;;;;;6169179;23;20149;-83
2021/10/31 06:18:16;;;;;;;20.90;14.20;;;18.70;68.40;;;;;;6219235;23;20134;-83
2021/10/31 06:20:42;;;;;;;17.42;12.65;;;18.70;68.30;;;;;;6219411;23;20141;-81
2021/10/31 06:23:07;;;;;;;17.63;13.15;;;18.70;68.40;;;;;;6219313;23;20137;-79
2021/10/31 06:25:33;;;;;;;19.25;13.18;;;18.70;68.30;;;;;;6247347;23;20157;-81
2021/10/31 06:27:59;;;;;;;18.25;12.90;;;18.80;68.30;;;;;;6247980;23;20464;-83
2021/10/31 06:30:24;;;;;;;16.55;12.23;;;18.70;68.20;;;;;;6248252;23;20130;-80
2021/10/31 06:32:50;;;;;;;16.85;12.55;;;18.70;68.30;;;;;;6248103;23;20187;-79
2021/10/31 06:35:16;;;;;;;17.83;13.00;;;18.70;68.40;;;;;;6248206;23;20157;-80
2021/10/31 06:37:42;;;;;;;19.33;13.50;;;18.70;68.30;;;;;;6248097;23;20130;-81
2021/10/31 06:40:08;;;;;;;18.02;13.32;;;18.70;68.40;;;;;;6247983;23;20220;-82
2021/10/31 06:42:34;;;;;;;19.55;14.00;;;18.70;68.50;;;;;;6248034;23;20169;-81
2021/10/31 06:45:00;;;;;;;18.60;13.35;;;18.70;68.50;;;;;;6247803;23;20161;-81
2021/10/31 06:47:26;;;;;;;20.15;13.70;;;18.70;68.70;;;;;;6247800;23;20134;-80
2021/10/31 06:49:51;;;;;;;18.08;13.80;;;18.70;68.40;;;;;;6247755;23;20442;-82
2021/10/31 06:52:18;;;;;;;17.73;13.65;;;18.70;68.40;;;;;;6195812;23;20140;-81
2021/10/31 06:54:44;;;;;;;18.48;13.02;;;18.70;68.50;;;;;;6196334;23;20153;-81
2021/10/31 06:57:10;;;;;;;18.00;12.75;;;18.70;68.50;;;;;;6221268;23;20577;-79
2021/10/31 06:59:35;;;;;;;18.25;13.32;;;18.70;68.60;;;;;;6221211;23;20188;-81
2021/10/31 07:02:01;;;;;;;17.65;12.93;;;18.60;68.50;;;;;;6247503;23;20165;-80
2021/10/31 07:04:27;;;;;;;18.92;13.40;;;18.70;68.70;;;;;;6248155;23;20561;-82
2021/10/31 07:06:53;;;;;;;19.40;13.88;;;18.70;68.70;;;;;;6247154;23;20192;-81
2021/10/31 07:09:19;;;;;;;18.75;13.63;;;18.60;68.50;;;;;;6220831;23;20129;-80
2021/10/31 07:11:45;;;;;;;18.17;13.43;;;18.70;68.10;;;;;;6196432;23;20592;-80
2021/10/31 07:14:10;;;;;;;18.90;13.45;;;18.70;68.10;;;;;;6247243;23;20461;-81
2021/10/31 07:16:36;;;;;;;20.02;13.98;;;18.70;68.10;;;;;;6247510;23;20157;-80
2021/10/31 07:19:03;;;;;;;19.02;13.10;;;18.80;67.80;;;;;;6247378;23;20140;-81
2021/10/31 07:21:28;;;;;;;16.95;12.77;;;18.80;67.60;;;;;;6247353;23;20166;-78
2021/10/31 07:23:54;;;;;;;17.45;12.57;;;18.80;67.40;;;;;;6221035;23;20149;-81
2021/10/31 07:26:20;;;;;;;17.10;13.20;;;18.80;67.50;;;;;;6220621;23;20263;-82
2021/10/31 07:28:46;;;;;;;17.77;12.73;;;18.80;67.40;;;;;;6247403;23;20130;-81
2021/10/31 07:31:13;;;;;;;16.73;12.98;;;18.90;67.40;;;;;;6247381;23;20527;-79
2021/10/31 07:33:39;;;;;;;19.30;13.55;;;18.90;67.40;;;;;;6247641;23;20122;-79
2021/10/31 07:36:04;;;;;;;18.23;12.93;;;18.90;67.30;;;;;;6248030;23;20134;-82
2021/10/31 07:38:32;;;;;;;17.65;13.30;;;18.90;67.20;;;;;;6247668;23;20469;-80
2021/10/31 07:40:57;;;;;;;17.83;13.27;;;19.00;67.20;;;;;;6247155;23;20256;-79
2021/10/31 07:43:23;;;;;;;18.27;13.68;;;19.00;66.90;;;;;;6247275;23;20227;-82
2021/10/31 07:45:48;;;;;;;17.73;13.07;;;19.00;66.90;;;;;;6247539;23;20561;-83
2021/10/31 07:48:14;;;;;;;18.55;13.63;;;19.00;66.80;;;;;;6220315;23;20211;-83
2021/10/31 07:50:40;;;;;;;18.90;12.82;;;19.10;66.50;;;;;;6247714;23;20137;-84
2021/10/31 07:53:08;;;;;;;17.85;12.70;;;19.10;66.50;;;;;;6247042;23;20126;-82
2021/10/31 07:55:35;;;;;;;18.90;13.93;;;19.10;66.50;;;;;;6247393;23;20620;-82
2021/10/31 07:58:02;;;;;;;18.60;13.85;;;19.10;66.30;;;;;;6247084;23;20592;-81
2021/10/31 08:00:27;;;;;;;19.70;13.85;;;19.10;66.10;;;;;;6195420;23;20187;-82
2021/10/31 08:02:55;;;;;;;17.42;13.20;;;19.10;66.20;;;;;;6220600;23;20602;-82
2021/10/31 08:05:21;;;;;;;19.00;14.40;;;19.10;65.80;;;;;;6247180;23;20161;-79
2021/10/31 08:07:47;;;;;;;17.77;13.27;;;19.20;65.80;;;;;;6246807;23;20235;-81
2021/10/31 08:10:12;;;;;;;18.13;13.30;;;19.20;65.90;;;;;;6247005;23;20153;-83
2021/10/31 08:12:38;;;;;;;16.25;12.55;;;19.20;65.90;;;;;;6246832;23;20144;-81
2021/10/31 08:15:04;;;;;;;19.25;13.40;;;19.20;65.80;;;;;;6193411;23;20130;-83
2021/10/31 08:17:30;;;;;;;19.45;13.57;;;19.20;65.20;;;;;;6243730;23;20232;-82
2021/10/31 08:19:56;;;;;;;20.13;14.68;;;19.20;65.60;;;;;;6217359;23;20154;-82
2021/10/31 08:22:21;;;;;;;19.10;13.77;;;19.30;65.50;;;;;;6218622;23;20609;-80
2021/10/31 08:24:47;;;;;;;17.05;13.73;;;19.30;64.70;;;;;;6245490;23;20134;-82
2021/10/31 08:27:15;;;;;;;18.48;13.82;;;19.30;65.50;;;;;;6195523;23;20130;-82
2021/10/31 08:29:41;;;;;;;19.02;12.85;;;19.30;65.20;;;;;;6218669;23;20129;-82
2021/10/31 08:32:07;;;;;;;19.35;13.43;;;19.30;65.30;;;;;;6220655;23;20549;-80
2021/10/31 08:34:33;;;;;;;19.92;14.27;;;19.30;65.30;;;;;;6221241;23;20136;-81
2021/10/31 08:36:59;;;;;;;18.35;13.60;;;19.30;65.50;;;;;;6221201;23;20192;-83
2021/10/31 08:39:24;;;;;;;18.35;13.80;;;19.30;65.00;;;;;;6247311;23;20141;-80
2021/10/31 08:41:50;;;;;;;19.67;13.07;;;19.40;65.20;;;;;;6247202;23;20253;-81
2021/10/31 08:44:16;;;;;;;18.83;13.65;;;19.40;64.90;;;;;;6247614;23;20133;-79
2021/10/31 08:46:41;;;;;;;18.55;13.73;;;19.40;64.70;;;;;;6247383;23;20145;-81
2021/10/31 08:49:07;;;;;;;19.08;13.38;;;19.40;64.90;;;;;;6245843;23;20572;-79
2021/10/31 08:51:33;;;;;;;17.23;13.70;;;19.50;64.80;;;;;;6246411;23;20481;-81
2021/10/31 08:53:59;;;;;;;19.05;13.05;;;19.50;64.70;;;;;;6247191;23;20134;-82
2021/10/31 08:56:25;;;;;;;19.85;13.82;;;19.50;65.10;;;;;;6247420;23;20137;-83
2021/10/31 08:58:51;;;;;;;18.73;13.57;;;19.50;64.90;;;;;;6246918;23;20463;-80
2021/10/31 09:01:17;;;;;;;18.17;13.75;;;19.50;65.00;;;;;;6246883;23;20196;-80
2021/10/31 09:03:44;;;;;;;19.33;13.63;;;19.50;64.90;;;;;;6220611;23;20576;-80
2021/10/31 09:06:10;;;;;;;18.58;14.02;;;19.50;64.70;;;;;;6247034;23;20141;-81
2021/10/31 09:08:35;;;;;;;19.25;14.07;;;19.50;64.70;;;;;;6214775;23;20197;-82
2021/10/31 09:11:01;;;;;;;19.88;14.20;;;19.50;64.70;;;;;;6216581;23;20130;-82
2021/10/31 09:13:27;;;;;;;18.73;14.05;;;19.50;64.60;;;;;;6216669;23;20130;-83
2021/10/31 09:15:53;;;;;;;19.60;14.27;;;19.50;64.80;;;;;;6216660;23;20585;-83
2021/10/31 09:18:19;;;;;;;19.77;14.27;;;19.50;64.40;;;;;;6214694;23;20157;-81
2021/10/31 09:20:46;;;;;;;19.70;14.13;;;19.50;64.80;;;;;;6216200;23;20138;-80
2021/10/31 09:23:11;;;;;;;18.83;13.85;;;19.50;64.90;;;;;;6216024;23;20225;-82
2021/10/31 09:25:37;;;;;;;18.45;13.48;;;19.60;64.80;;;;;;6215524;23;20149;-82
2021/10/31 09:28:05;;;;;;;19.23;13.98;;;19.50;64.80;;;;;;6219413;23;20134;-83
2021/10/31 09:30:33;;;;;;;18.48;14.25;;;19.60;64.90;;;;;;6191448;23;20152;-80
2021/10/31 09:32:58;;;;;;;19.05;13.13;;;19.60;64.80;;;;;;6193576;23;20153;-83
2021/10/31 09:35:26;;;;;;;20.60;13.50;;;19.60;64.90;;;;;;6224779;23;20130;-81
2021/10/31 09:37:55;;;;;;;19.98;14.45;;;19.60;64.90;;;;;;6196559;23;20153;-80
2021/10/31 09:40:23;;;;;;;20.60;14.18;;;19.60;65.20;;;;;;6200050;23;20126;-83
2021/10/31 09:42:55;;;;;;;21.33;14.02;;;19.70;65.30;;;;;;6195782;23;20177;-81
2021/10/31 09:45:33;;;;;;;18.50;13.55;;;19.70;65.00;;;;;;6201351;23;20146;-81
2021/10/31 09:48:10;;;;;;;20.23;13.90;;;19.70;65.00;;;;;;6197984;23;20122;-82
2021/10/31 09:50:39;;;;;;;20.13;13.73;;;19.70;64.80;;;;;;6221495;23;20197;-82
2021/10/31 09:53:05;;;;;;;19.55;14.00;;;19.80;64.70;;;;;;6217153;23;20157;-83
2021/10/31 09:55:30;;;;;;;19.20;13.95;;;19.70;64.60;;;;;;6167822;23;20458;-83
2021/10/31 09:57:58;;;;;;;17.30;13.75;;;19.80;64.70;;;;;;6166598;23;20134;-82
2021/10/31 10:00:42;;;;;;;19.67;14.05;;;19.80;64.80;;;;;;6214438;23;20458;-82
2021/10/31 10:06:16;;;;;;;19.60;14.43;;;19.80;64.90;;;;;;6213937;23;20189;-82
2021/10/31 10:09:02;;;;;;;23.33;14.10;;;19.80;64.70;;;;;;6190523;23;20201;-80
2021/10/31 10:11:29;;;;;;;20.15;14.23;;;19.90;65.20;;;;;;6191281;23;20134;-79
2021/10/31 10:14:13;;;;;;;20.08;14.00;;;19.90;65.80;;;;;;6188969;23;20135;-80
2021/10/31 10:16:40;;;;;;;19.98;13.73;;;19.90;65.60;;;;;;6191622;23;20138;-81
2021/10/31 10:19:23;;;;;;;19.50;13.95;;;19.90;65.90;;;;;;6196279;23;20142;-84
2021/10/31 10:22:06;;;;;;;18.65;13.70;;;19.90;65.70;;;;;;6221561;23;20197;-83
2021/10/31 10:24:37;;;;;;;20.15;13.55;;;19.90;65.50;;;;;;6222050;23;20149;-82
2021/10/31 10:27:05;;;;;;;20.48;13.95;;;19.90;65.60;;;;;;6167532;23;20146;-80
2021/10/31 10:29:38;;;;;;;19.77;14.52;;;19.90;65.10;;;;;;6214647;23;20158;-83
2021/10/31 10:32:09;;;;;;;19.77;14.90;;;19.90;65.10;;;;;;6214739;23;20525;-82
2021/10/31 10:34:53;;;;;;;20.77;14.63;;;19.90;64.90;;;;;;6214827;23;20184;-78
2021/10/31 10:37:36;;;;;;;18.40;13.93;;;19.90;65.20;;;;;;6214143;23;20137;-80
2021/10/31 10:40:08;;;;;;;21.25;15.35;;;19.90;65.50;;;;;;6217412;23;20449;-81
2021/10/31 10:42:36;;;;;;;19.60;13.85;;;19.90;65.50;;;;;;6217279;23;20170;-82
2021/10/31 10:45:07;;;;;;;20.45;14.05;;;19.90;65.60;;;;;;6190746;23;20578;-81
2021/10/31 10:47:33;;;;;;;20.02;13.93;;;19.90;65.80;;;;;;6215847;23;20213;-80
2021/10/31 10:49:59;;;;;;;21.40;14.35;;;19.90;65.80;;;;;;6213998;23;20138;-81
2021/10/31 10:52:29;;;;;;;21.30;14.40;;;19.90;65.60;;;;;;6213520;23;20150;-81
2021/10/31 10:54:59;;;;;;;19.25;14.30;;;19.90;65.50;;;;;;6212462;23;20137;-80
2021/10/31 10:57:26;;;;;;;17.52;13.70;;;19.90;65.40;;;;;;6214229;23;20153;-82
2021/10/31 10:59:55;;;;;;;20.23;14.00;;;19.90;65.60;;;;;;6212383;23;20146;-81
2021/10/31 11:02:22;;;;;;;19.98;13.77;;;19.80;65.60;;;;;;6214602;23;20221;-81
2021/10/31 11:04:51;;;;;;;20.60;13.80;;;19.80;65.60;;;;;;6188342;23;20134;-81
2021/10/31 11:07:17;;;;;;;19.65;14.48;;;19.80;65.40;;;;;;6226590;23;20193;-81
2021/10/31 11:09:46;;;;;;;18.75;13.57;;;19.80;65.50;;;;;;6244829;23;20144;-81
2021/10/31 11:12:29;;;;;;;19.77;14.55;;;19.80;65.40;;;;;;6247266;23;20161;-81
2021/10/31 11:14:56;;;;;;;18.90;13.80;;;19.90;65.40;;;;;;6247499;23;20130;-81
2021/10/31 11:17:23;;;;;;;19.80;14.77;;;19.90;65.10;;;;;;6247233;23;20134;-81
2021/10/31 11:19:49;;;;;;;20.38;14.70;;;19.80;65.40;;;;;;6246857;23;20157;-80
2021/10/31 11:22:15;;;;;;;20.50;14.15;;;19.80;65.20;;;;;;6246514;23;20169;-80
2021/10/31 11:24:40;;;;;;;19.08;14.55;;;19.80;65.50;;;;;;6246460;23;20576;-80
2021/10/31 11:27:08;;;;;;;21.60;14.13;;;19.80;65.50;;;;;;6170356;23;20141;-79
2021/10/31 11:29:34;;;;;;;22.90;15.25;;;19.80;65.40;;;;;;6246764;23;20561;-80
2021/10/31 11:32:00;;;;;;;19.92;14.40;;;19.80;65.40;;;;;;6247121;23;20180;-79
2021/10/31 11:34:26;;;;;;;20.50;14.38;;;19.80;66.10;;;;;;6247434;23;20134;-81
2021/10/31 11:36:53;;;;;;;18.83;14.00;;;19.80;66.10;;;;;;6247003;23;20141;-79
2021/10/31 11:39:19;;;;;;;21.48;14.15;;;19.80;65.80;;;;;;6247278;23;20130;-81
2021/10/31 11:41:45;;;;;;;19.55;14.73;;;19.80;65.80;;;;;;6195595;23;20185;-81
2021/10/31 11:44:11;;;;;;;18.45;14.45;;;19.80;65.40;;;;;;6220079;23;20237;-80
2021/10/31 11:46:38;;;;;;;19.08;14.23;;;19.80;65.20;;;;;;6247298;23;20176;-82
2021/10/31 11:49:04;;;;;;;20.67;15.00;;;19.80;64.80;;;;;;6247233;23;20137;-79
2021/10/31 11:51:47;;;;;;;21.20;14.07;;;19.80;65.40;;;;;;6246772;23;20148;-80
2021/10/31 11:54:14;;;;;;;21.52;13.52;;;19.80;65.60;;;;;;6246827;23;20130;-82
2021/10/31 11:56:43;;;;;;;19.95;13.65;;;19.80;65.50;;;;;;6195484;23;20153;-79
2021/10/31 11:59:15;;;;;;;19.67;13.85;;;19.80;65.70;;;;;;6246755;23;20152;-80
2021/10/31 12:01:59;;;;;;;18.73;13.60;;;19.80;65.90;;;;;;6196146;23;20200;-79
2021/10/31 12:05:41;;;;;;;18.67;13.88;;;19.80;65.80;;;;;;6247619;23;20192;-81
2021/10/31 12:07:40;;;;;;;19.20;14.00;;;19.80;65.80;;;;;;6246168;23;20520;-81
2021/10/31 12:10:25;;;;;;;18.33;13.20;;;19.90;65.80;;;;;;6246635;23;20223;-80
2021/10/31 12:13:08;;;;;;;19.58;14.52;;;19.90;65.50;;;;;;6246374;23;20138;-80
2021/10/31 12:15:33;;;;;;;19.25;13.57;;;19.90;65.00;;;;;;6246952;23;20569;-82
2021/10/31 12:18:02;;;;;;;20.38;14.52;;;19.80;65.20;;;;;;6246394;23;20136;-81
2021/10/31 12:20:53;;;;;;;17.80;13.57;;;19.80;65.20;;;;;;6246359;23;20216;-81
2021/10/31 12:23:22;;;;;;;17.92;13.68;;;19.80;65.40;;;;;;6246268;23;20192;-81
2021/10/31 12:25:48;;;;;;;18.40;14.32;;;19.90;65.30;;;;;;6246986;23;20592;-80
2021/10/31 12:28:39;;;;;;;18.55;14.15;;;19.90;65.90;;;;;;6246825;23;20212;-81
2021/10/31 12:31:22;;;;;;;19.58;14.35;;;19.80;65.70;;;;;;6247137;23;20472;-81
2021/10/31 12:34:09;;;;;;;18.33;13.68;;;19.90;65.60;;;;;;6220507;23;20149;-80
2021/10/31 12:36:35;;;;;;;18.58;13.85;;;19.90;65.80;;;;;;6244419;23;20200;-81
2021/10/31 12:39:02;;;;;;;19.48;13.57;;;19.90;65.50;;;;;;6219711;23;20136;-80